createdAt,value
2022-12-03T00:01:13.979Z,0.60
2022-12-03T00:03:41.141Z,0.60
2022-12-03T00:06:14.497Z,0.60
2022-12-03T00:08:41.359Z,0.60
2022-12-03T00:11:08.224Z,0.60
2022-12-03T00:13:35.152Z,0.60
2022-12-03T00:16:02.156Z,0.60
2022-12-03T00:18:29.124Z,0.70
2022-12-03T00:20:55.985Z,0.70
2022-12-03T00:23:22.962Z,0.60
2022-12-03T00:25:49.838Z,0.60
2022-12-03T00:28:16.757Z,0.60
2022-12-03T00:30:43.736Z,0.60
2022-12-03T00:33:10.723Z,0.70
2022-12-03T00:35:37.670Z,0.60
2022-12-03T00:38:04.568Z,0.60
2022-12-03T00:40:31.570Z,0.60
2022-12-03T00:42:58.449Z,0.60
2022-12-03T00:45:25.347Z,0.60
2022-12-03T00:47:52.244Z,0.70
2022-12-03T00:50:19.191Z,0.60
2022-12-03T00:52:46.127Z,0.60
2022-12-03T00:55:13.025Z,0.60
2022-12-03T00:57:39.950Z,0.70
2022-12-03T01:00:07.278Z,0.70
2022-12-03T01:02:34.180Z,0.70
2022-12-03T01:05:01.169Z,0.70
2022-12-03T01:07:28.364Z,0.70
2022-12-03T01:09:55.373Z,0.70
2022-12-03T01:12:22.273Z,0.70
2022-12-03T01:14:49.220Z,0.70
2022-12-03T01:17:16.116Z,0.70
2022-12-03T01:19:48.035Z,0.70
2022-12-03T01:22:15.438Z,0.70
2022-12-03T01:24:42.296Z,0.80
2022-12-03T01:27:09.446Z,0.80
2022-12-03T01:29:36.348Z,0.70
2022-12-03T01:32:19.767Z,0.70
2022-12-03T01:34:47.530Z,0.70
2022-12-03T01:37:14.457Z,0.70
2022-12-03T01:39:41.614Z,0.70
2022-12-03T01:42:09.463Z,0.80
2022-12-03T01:44:37.630Z,0.80
2022-12-03T01:47:06.053Z,0.70
2022-12-03T01:49:53.984Z,0.70
2022-12-03T01:52:22.880Z,0.80
2022-12-03T01:54:55.899Z,0.80
2022-12-03T01:57:25.085Z,0.80
2022-12-03T01:59:52.684Z,0.80
2022-12-03T02:02:37.976Z,0.80
2022-12-03T02:05:16.662Z,0.80
2022-12-03T02:07:43.922Z,0.80
2022-12-03T02:10:11.629Z,0.80
2022-12-03T02:12:42.054Z,0.80
2022-12-03T02:15:09.412Z,0.80
2022-12-03T02:17:36.373Z,0.80
2022-12-03T02:20:05.992Z,0.80
2022-12-03T02:22:51.506Z,0.80
2022-12-03T02:25:20.324Z,0.80
2022-12-03T02:27:48.022Z,0.80
2022-12-03T02:30:16.279Z,0.80
2022-12-03T02:32:43.184Z,0.80
2022-12-03T02:35:14.497Z,0.80
2022-12-03T02:37:42.231Z,0.80
2022-12-03T02:40:10.966Z,0.90
2022-12-03T02:42:38.057Z,0.80
2022-12-03T02:45:13.948Z,0.80
2022-12-03T02:47:42.806Z,0.80
2022-12-03T02:50:10.479Z,0.80
2022-12-03T02:52:37.737Z,0.80
2022-12-03T02:55:05.534Z,0.90
2022-12-03T02:57:32.922Z,0.90
2022-12-03T02:59:59.878Z,0.80
2022-12-03T03:02:28.477Z,0.90
2022-12-03T03:04:56.303Z,0.80
2022-12-03T03:07:23.345Z,0.80
2022-12-03T03:09:50.294Z,0.80
2022-12-03T03:12:17.323Z,0.80
2022-12-03T03:14:44.280Z,0.80
2022-12-03T03:17:11.732Z,0.70
2022-12-03T03:19:38.691Z,0.80
2022-12-03T03:22:05.947Z,0.70
2022-12-03T03:24:32.873Z,0.70
2022-12-03T03:26:59.835Z,0.70
2022-12-03T03:29:26.862Z,0.70
2022-12-03T03:31:53.884Z,0.60
2022-12-03T03:34:20.977Z,0.60
2022-12-03T03:36:47.875Z,0.60
2022-12-03T03:39:14.852Z,0.60
2022-12-03T03:41:42.866Z,0.60
2022-12-03T03:44:10.103Z,0.60
2022-12-03T03:46:37.509Z,0.60
2022-12-03T03:49:05.050Z,0.60
2022-12-03T03:51:32.885Z,0.60
2022-12-03T03:54:00.083Z,0.60
2022-12-03T03:56:27.080Z,0.60
2022-12-03T03:58:55.140Z,0.60
2022-12-03T04:01:23.963Z,0.60
2022-12-03T04:03:51.089Z,0.60
2022-12-03T04:06:18.104Z,0.60
2022-12-03T04:08:45.043Z,0.60
2022-12-03T04:11:30.731Z,0.60
2022-12-03T04:13:57.682Z,0.50
2022-12-03T04:16:24.757Z,0.60
2022-12-03T04:18:52.197Z,0.60
2022-12-03T04:21:39.290Z,0.60
2022-12-03T04:24:07.181Z,0.50
2022-12-03T04:26:53.321Z,0.50
2022-12-03T04:29:20.915Z,0.60
2022-12-03T04:32:06.651Z,0.50
2022-12-03T04:34:52.718Z,0.50
2022-12-03T04:37:20.265Z,0.50
2022-12-03T04:39:47.248Z,0.40
2022-12-03T04:42:14.187Z,0.40
2022-12-03T04:44:41.243Z,0.40
2022-12-03T04:47:11.372Z,0.40
2022-12-03T04:49:39.865Z,0.40
2022-12-03T04:52:06.836Z,0.40
2022-12-03T04:54:33.794Z,0.40
2022-12-03T04:57:00.769Z,0.40
2022-12-03T04:59:27.727Z,0.40
2022-12-03T05:01:54.716Z,0.40
2022-12-03T05:04:21.684Z,0.40
2022-12-03T05:06:48.594Z,0.40
2022-12-03T05:09:15.990Z,0.30
2022-12-03T05:11:43.056Z,0.40
2022-12-03T05:14:10.398Z,0.40
2022-12-03T05:16:37.625Z,0.30
2022-12-03T05:19:05.664Z,0.40
2022-12-03T05:21:32.551Z,0.40
2022-12-03T05:23:59.511Z,0.40
2022-12-03T05:26:26.452Z,0.40
2022-12-03T05:28:53.402Z,0.30
2022-12-03T05:31:20.404Z,0.30
2022-12-03T05:33:47.354Z,0.40
2022-12-03T05:36:14.297Z,0.30
2022-12-03T05:38:41.223Z,0.30
2022-12-03T05:41:28.071Z,0.30
2022-12-03T05:43:55.049Z,0.30
2022-12-03T05:46:22.124Z,0.30
2022-12-03T05:48:49.053Z,0.30
2022-12-03T05:51:16.142Z,0.30
2022-12-03T05:53:43.058Z,0.40
2022-12-03T05:56:10.054Z,0.40
2022-12-03T05:58:37.040Z,0.40
2022-12-03T06:01:03.954Z,0.30
2022-12-03T06:03:30.910Z,0.40
2022-12-03T06:05:57.970Z,0.40
2022-12-03T06:08:24.905Z,0.40
2022-12-03T06:10:51.889Z,0.30
2022-12-03T06:13:18.894Z,0.40
2022-12-03T06:15:45.902Z,0.30
2022-12-03T06:18:12.865Z,0.40
2022-12-03T06:20:39.826Z,0.40
2022-12-03T06:23:06.767Z,0.30
2022-12-03T06:25:33.735Z,0.40
2022-12-03T06:28:00.669Z,0.40
2022-12-03T06:30:27.868Z,0.40
2022-12-03T06:32:55.091Z,0.40
2022-12-03T06:35:22.028Z,0.30
2022-12-03T06:37:48.973Z,0.30
2022-12-03T06:40:16.950Z,0.30
2022-12-03T06:42:43.941Z,0.30
2022-12-03T06:45:11.323Z,0.30
2022-12-03T06:47:38.638Z,0.30
2022-12-03T06:50:06.546Z,0.30
2022-12-03T06:52:33.440Z,0.30
2022-12-03T06:55:00.609Z,0.30
2022-12-03T06:57:27.648Z,0.30
2022-12-03T06:59:54.836Z,0.30
2022-12-03T07:02:21.980Z,0.30
2022-12-03T07:04:48.924Z,0.30
2022-12-03T07:07:15.814Z,0.30
2022-12-03T07:09:43.561Z,0.40
2022-12-03T07:12:10.619Z,0.40
2022-12-03T07:14:37.752Z,0.40
2022-12-03T07:17:04.754Z,0.40
2022-12-03T07:19:33.031Z,0.40
2022-12-03T07:22:00.402Z,0.40
2022-12-03T07:24:27.674Z,0.40
2022-12-03T07:26:54.617Z,0.40
2022-12-03T07:29:21.886Z,0.40
2022-12-03T07:31:48.884Z,0.40
2022-12-03T07:34:15.910Z,0.40
2022-12-03T07:36:42.876Z,0.40
2022-12-03T07:39:09.820Z,0.40
2022-12-03T07:41:36.758Z,0.50
2022-12-03T07:44:06.514Z,0.50
2022-12-03T07:46:36.276Z,0.50
2022-12-03T07:49:03.755Z,0.50
2022-12-03T07:51:32.302Z,0.50
2022-12-03T07:53:59.668Z,0.50
2022-12-03T07:56:26.671Z,0.50
2022-12-03T07:58:53.613Z,0.50
2022-12-03T08:01:20.615Z,0.50
2022-12-03T08:03:47.607Z,0.50
2022-12-03T08:06:14.489Z,0.60
2022-12-03T08:08:41.496Z,0.50
2022-12-03T08:11:11.042Z,0.60
2022-12-03T08:13:38.018Z,0.60
2022-12-03T08:16:12.348Z,0.60
2022-12-03T08:18:39.409Z,0.60
2022-12-03T08:21:06.824Z,0.60
2022-12-03T08:23:34.715Z,0.60
2022-12-03T08:26:02.359Z,0.70
2022-12-03T08:28:29.301Z,0.70
2022-12-03T08:31:01.598Z,0.70
2022-12-03T08:33:30.053Z,0.70
2022-12-03T08:35:56.941Z,0.70
2022-12-03T08:38:24.984Z,0.70
2022-12-03T08:40:52.952Z,0.70
2022-12-03T08:43:27.148Z,0.70
2022-12-03T08:45:55.111Z,0.70
2022-12-03T08:48:28.220Z,0.80
2022-12-03T08:50:59.083Z,0.80
2022-12-03T08:53:27.028Z,0.80
2022-12-03T08:55:55.132Z,0.80
2022-12-03T08:58:23.528Z,0.80
2022-12-03T09:01:10.825Z,0.90
2022-12-03T09:03:38.886Z,0.90
2022-12-03T09:06:05.955Z,0.90
2022-12-03T09:08:32.872Z,0.90
2022-12-03T09:10:59.867Z,0.90
2022-12-03T09:13:26.744Z,0.90
2022-12-03T09:15:53.675Z,0.90
2022-12-03T09:18:20.557Z,0.90
2022-12-03T09:20:47.492Z,0.90
2022-12-03T09:23:14.721Z,0.90
2022-12-03T09:25:41.703Z,0.90
2022-12-03T09:28:08.657Z,0.90
2022-12-03T09:30:35.633Z,1.00
2022-12-03T09:33:02.603Z,1.00
2022-12-03T09:35:29.465Z,1.00
2022-12-03T09:37:56.486Z,1.00
2022-12-03T09:40:23.456Z,1.00
2022-12-03T09:42:50.955Z,1.00
2022-12-03T09:45:17.849Z,1.00
2022-12-03T09:47:46.288Z,1.00
2022-12-03T09:50:14.188Z,1.00
2022-12-03T09:52:41.239Z,1.00
2022-12-03T09:55:13.520Z,1.10
2022-12-03T09:57:40.451Z,1.10
2022-12-03T10:00:15.073Z,1.10
2022-12-03T10:02:42.513Z,1.10
2022-12-03T10:05:09.577Z,1.20
2022-12-03T10:07:36.922Z,1.20
2022-12-03T10:10:04.152Z,1.20
2022-12-03T10:12:31.093Z,1.30
2022-12-03T10:14:58.115Z,1.30
2022-12-03T10:17:25.007Z,1.30
2022-12-03T10:19:52.150Z,1.30
2022-12-03T10:22:19.194Z,1.30
2022-12-03T10:24:46.127Z,1.40
2022-12-03T10:27:24.023Z,1.40
2022-12-03T10:29:57.994Z,1.40
2022-12-03T10:32:26.811Z,1.50
2022-12-03T10:35:06.315Z,1.40
2022-12-03T10:37:33.406Z,1.40
2022-12-03T10:40:12.381Z,1.50
2022-12-03T10:42:40.353Z,1.60
2022-12-03T10:45:18.331Z,1.60
2022-12-03T10:48:02.236Z,1.50
2022-12-03T10:50:29.240Z,1.50
2022-12-03T10:52:56.225Z,1.50
2022-12-03T10:55:23.446Z,1.50
2022-12-03T10:57:50.359Z,1.60
2022-12-03T11:00:18.295Z,1.50
2022-12-03T11:02:47.412Z,1.50
2022-12-03T11:05:17.395Z,1.50
2022-12-03T11:07:44.802Z,1.50
2022-12-03T11:10:16.538Z,1.50
2022-12-03T11:13:03.424Z,1.60
2022-12-03T11:15:44.220Z,1.60
2022-12-03T11:18:11.415Z,1.60
2022-12-03T11:20:47.335Z,1.60
2022-12-03T11:23:14.278Z,1.60
2022-12-03T11:25:50.781Z,1.60
2022-12-03T11:28:17.806Z,1.50
2022-12-03T11:30:51.184Z,1.50
2022-12-03T11:33:27.447Z,1.50
2022-12-03T11:36:03.400Z,1.60
2022-12-03T11:38:52.384Z,1.60
2022-12-03T11:41:19.736Z,1.50
2022-12-03T11:43:52.844Z,1.50
2022-12-03T11:46:21.577Z,1.60
2022-12-03T11:48:49.815Z,1.60
2022-12-03T11:51:17.644Z,1.50
2022-12-03T11:53:45.197Z,1.60
2022-12-03T11:56:23.974Z,1.50
2022-12-03T11:58:58.062Z,1.60
2022-12-03T12:01:39.153Z,1.60
2022-12-03T12:04:07.524Z,1.60
2022-12-03T12:06:46.431Z,1.50
2022-12-03T12:09:37.051Z,1.50
2022-12-03T12:12:22.604Z,1.50
2022-12-03T12:14:49.528Z,1.60
2022-12-03T12:17:31.637Z,1.60
2022-12-03T12:20:11.950Z,1.60
2022-12-03T12:22:39.478Z,1.50
2022-12-03T12:25:26.389Z,1.60
2022-12-03T12:27:55.285Z,1.50
2022-12-03T12:30:22.744Z,1.50
2022-12-03T12:32:53.721Z,1.50
2022-12-03T12:35:25.036Z,1.50
2022-12-03T12:38:00.108Z,1.50
2022-12-03T12:40:29.236Z,1.50
2022-12-03T12:43:00.101Z,1.50
2022-12-03T12:45:37.220Z,1.50
2022-12-03T12:48:10.415Z,1.50
2022-12-03T12:50:38.110Z,1.40
2022-12-03T12:53:11.326Z,1.40
2022-12-03T12:55:38.852Z,1.50
2022-12-03T12:58:14.021Z,1.50
2022-12-03T13:00:41.322Z,1.50
2022-12-03T13:03:08.512Z,1.60
2022-12-03T13:05:39.623Z,1.60
2022-12-03T13:08:21.797Z,1.50
2022-12-03T13:10:48.946Z,1.60
2022-12-03T13:13:26.469Z,1.60
2022-12-03T13:15:56.354Z,1.60
2022-12-03T13:18:38.605Z,1.60
2022-12-03T13:21:20.138Z,1.60
2022-12-03T13:23:47.226Z,1.60
2022-12-03T13:26:34.538Z,1.60
2022-12-03T13:29:06.977Z,1.70
2022-12-03T13:31:41.931Z,1.60
2022-12-03T13:34:21.398Z,1.60
2022-12-03T13:36:55.332Z,1.60
2022-12-03T13:39:36.266Z,1.60
2022-12-03T13:42:33.961Z,1.60
2022-12-03T13:45:01.979Z,1.60
2022-12-03T13:47:28.882Z,1.50
2022-12-03T13:49:58.135Z,1.50
2022-12-03T13:52:26.384Z,1.60
2022-12-03T13:54:54.799Z,1.50
2022-12-03T13:57:21.920Z,1.60
2022-12-03T13:59:49.266Z,1.50
2022-12-03T14:02:16.501Z,1.50
2022-12-03T14:04:43.596Z,1.50
2022-12-03T14:07:10.799Z,1.50
2022-12-03T14:09:38.055Z,1.50
2022-12-03T14:12:24.018Z,1.50
2022-12-03T14:14:51.218Z,1.50
2022-12-03T14:17:18.378Z,1.50
2022-12-03T14:19:45.782Z,1.50
2022-12-03T14:22:12.937Z,1.40
2022-12-03T14:24:42.763Z,1.40
2022-12-03T14:27:09.893Z,1.40
2022-12-03T14:29:37.979Z,1.40
2022-12-03T14:32:05.079Z,1.40
2022-12-03T14:34:32.156Z,1.40
2022-12-03T14:37:01.152Z,1.40
2022-12-03T14:39:46.547Z,1.40
2022-12-03T14:42:13.589Z,1.40
2022-12-03T14:44:45.137Z,1.40
2022-12-03T14:47:12.779Z,1.40
2022-12-03T14:49:40.195Z,1.30
2022-12-03T14:52:11.759Z,1.30
2022-12-03T14:54:39.549Z,1.40
2022-12-03T14:57:06.753Z,1.30
2022-12-03T14:59:34.052Z,1.30
2022-12-03T15:02:01.279Z,1.40
2022-12-03T15:04:28.424Z,1.40
2022-12-03T15:06:55.577Z,1.30
2022-12-03T15:09:23.740Z,1.30
2022-12-03T15:11:50.699Z,1.30
2022-12-03T15:14:17.607Z,1.30
2022-12-03T15:16:44.671Z,1.30
2022-12-03T15:19:11.730Z,1.30
2022-12-03T15:21:38.596Z,1.30
2022-12-03T15:24:05.752Z,1.30
2022-12-03T15:26:32.746Z,1.30
2022-12-03T15:28:59.688Z,1.30
2022-12-03T15:31:26.685Z,1.20
2022-12-03T15:33:53.818Z,1.30
2022-12-03T15:36:20.803Z,1.20
2022-12-03T15:38:47.686Z,1.20
2022-12-03T15:41:29.834Z,1.20
2022-12-03T15:43:58.059Z,1.20
2022-12-03T15:46:25.127Z,1.20
2022-12-03T15:48:52.276Z,1.20
2022-12-03T15:51:19.189Z,1.20
2022-12-03T15:53:46.183Z,1.20
2022-12-03T15:56:13.319Z,1.10
2022-12-03T15:58:40.627Z,1.10
2022-12-03T16:01:08.356Z,1.10
2022-12-03T16:03:35.429Z,1.20
2022-12-03T16:06:02.343Z,1.20
2022-12-03T16:08:30.491Z,1.10
2022-12-03T16:10:57.876Z,1.10
2022-12-03T16:13:24.874Z,1.10
2022-12-03T16:15:51.828Z,1.10
2022-12-03T16:18:18.779Z,1.10
2022-12-03T16:20:45.899Z,1.10
2022-12-03T16:23:12.900Z,1.10
2022-12-03T16:25:39.827Z,1.10
2022-12-03T16:28:06.776Z,1.10
2022-12-03T16:30:33.800Z,1.10
2022-12-03T16:33:00.780Z,1.10
2022-12-03T16:35:27.689Z,1.10
2022-12-03T16:37:54.654Z,1.10
2022-12-03T16:40:21.653Z,1.10
2022-12-03T16:42:48.535Z,1.10
2022-12-03T16:45:34.027Z,1.10
2022-12-03T16:48:01.497Z,1.10
2022-12-03T16:50:30.258Z,1.10
2022-12-03T16:52:57.798Z,1.10
2022-12-03T16:55:26.431Z,1.10
2022-12-03T16:57:53.403Z,1.10
2022-12-03T17:00:22.062Z,1.10
2022-12-03T17:02:49.208Z,1.10
2022-12-03T17:05:16.197Z,1.00
2022-12-03T17:07:43.195Z,1.10
2022-12-03T17:10:10.502Z,1.10
2022-12-03T17:13:07.654Z,1.10
2022-12-03T17:15:24.398Z,1.10
2022-12-03T17:17:51.378Z,1.10
2022-12-03T17:20:18.713Z,1.10
2022-12-03T17:22:45.700Z,1.10
2022-12-03T17:25:12.873Z,1.10
2022-12-03T17:27:45.147Z,1.00
2022-12-03T17:30:12.783Z,1.00
2022-12-03T17:32:39.751Z,1.00
2022-12-03T17:35:06.937Z,1.00
2022-12-03T17:37:33.986Z,1.10
2022-12-03T17:40:01.070Z,1.00
2022-12-03T17:42:28.075Z,1.00
2022-12-03T17:44:54.976Z,1.00
2022-12-03T17:47:21.896Z,1.00
2022-12-03T17:49:48.747Z,1.00
2022-12-03T17:52:15.688Z,1.10
2022-12-03T17:55:09.215Z,1.00
2022-12-03T17:57:29.537Z,1.00
2022-12-03T17:59:56.762Z,1.00
2022-12-03T18:02:24.064Z,1.00
2022-12-03T18:04:51.029Z,1.00
2022-12-03T18:07:18.014Z,1.00
2022-12-03T18:09:45.029Z,1.00
2022-12-03T18:12:11.948Z,1.00
2022-12-03T18:14:38.842Z,1.00
2022-12-03T18:17:06.122Z,1.00
2022-12-03T18:19:33.031Z,1.00
2022-12-03T18:21:59.920Z,0.90
2022-12-03T18:24:27.590Z,1.00
2022-12-03T18:26:54.484Z,0.90
2022-12-03T18:29:21.413Z,1.00
2022-12-03T18:31:48.495Z,1.00
2022-12-03T18:34:15.454Z,1.00
2022-12-03T18:36:42.418Z,1.00
2022-12-03T18:39:12.035Z,1.00
2022-12-03T18:41:39.652Z,1.00
2022-12-03T18:44:07.026Z,0.90
2022-12-03T18:46:52.901Z,0.90
2022-12-03T18:49:20.703Z,0.90
2022-12-03T18:51:48.574Z,0.90
2022-12-03T18:54:15.919Z,0.90
2022-12-03T18:56:42.894Z,0.90
2022-12-03T18:59:09.941Z,0.90
2022-12-03T19:01:36.942Z,0.90
2022-12-03T19:04:04.023Z,0.90
2022-12-03T19:06:31.067Z,0.80
2022-12-03T19:08:58.131Z,0.90
2022-12-03T19:11:25.354Z,0.90
2022-12-03T19:13:52.339Z,0.80
2022-12-03T19:16:19.313Z,0.80
2022-12-03T19:18:48.461Z,0.80
2022-12-03T19:21:16.243Z,0.80
2022-12-03T19:23:59.058Z,0.80
2022-12-03T19:26:30.614Z,0.80
2022-12-03T19:28:57.839Z,0.80
2022-12-03T19:31:24.850Z,0.80
2022-12-03T19:33:52.207Z,0.80
2022-12-03T19:36:23.480Z,0.80
2022-12-03T19:38:56.587Z,0.80
2022-12-03T19:41:24.581Z,0.80
2022-12-03T19:43:52.913Z,0.80
2022-12-03T19:46:20.770Z,0.80
2022-12-03T19:48:48.070Z,0.80
2022-12-03T19:51:33.631Z,0.80
2022-12-03T19:54:02.018Z,0.80
2022-12-03T19:56:30.655Z,0.80
2022-12-03T19:58:58.130Z,0.70
2022-12-03T20:01:29.253Z,0.80
2022-12-03T20:03:58.532Z,0.80
2022-12-03T20:06:26.829Z,0.80
2022-12-03T20:09:01.451Z,0.80
2022-12-03T20:11:30.148Z,0.70
2022-12-03T20:14:02.117Z,0.70
2022-12-03T20:16:29.595Z,0.70
2022-12-03T20:18:58.043Z,0.70
2022-12-03T20:21:25.489Z,0.70
2022-12-03T20:23:52.612Z,0.70
2022-12-03T20:26:20.933Z,0.70
2022-12-03T20:28:48.426Z,0.70
2022-12-03T20:31:19.589Z,0.70
2022-12-03T20:33:51.586Z,0.70
2022-12-03T20:36:19.436Z,0.70
2022-12-03T20:38:47.025Z,0.70
2022-12-03T20:41:15.413Z,0.70
2022-12-03T20:43:42.518Z,0.70
2022-12-03T20:46:12.739Z,0.70
2022-12-03T20:48:40.180Z,0.70
2022-12-03T20:51:08.874Z,0.70
2022-12-03T20:53:36.942Z,0.70
2022-12-03T20:56:04.510Z,0.70
2022-12-03T20:58:31.934Z,0.70
2022-12-03T21:01:15.160Z,0.70
2022-12-03T21:03:43.048Z,0.70
2022-12-03T21:06:10.561Z,0.70
2022-12-03T21:08:42.687Z,0.70
2022-12-03T21:11:10.940Z,0.70
2022-12-03T21:13:41.460Z,0.70
2022-12-03T21:16:09.564Z,0.70
2022-12-03T21:18:36.679Z,0.70
2022-12-03T21:21:04.564Z,0.70
2022-12-03T21:23:32.336Z,0.70
2022-12-03T21:26:03.968Z,0.70
2022-12-03T21:28:31.327Z,0.70
2022-12-03T21:31:06.124Z,0.70
2022-12-03T21:33:33.813Z,0.70
2022-12-03T21:36:01.307Z,0.70
2022-12-03T21:38:29.188Z,0.70
2022-12-03T21:40:56.843Z,0.70
2022-12-03T21:43:24.432Z,0.70
2022-12-03T21:45:53.010Z,0.70
2022-12-03T21:48:20.578Z,0.70
2022-12-03T21:50:58.401Z,0.70
2022-12-03T21:53:25.600Z,0.70
2022-12-03T21:55:52.719Z,0.70
2022-12-03T21:58:19.724Z,0.70
2022-12-03T22:00:46.911Z,0.70
2022-12-03T22:03:14.091Z,0.70
2022-12-03T22:05:41.274Z,0.70
2022-12-03T22:08:09.606Z,0.70
2022-12-03T22:10:36.743Z,0.70
2022-12-03T22:13:03.891Z,0.60
2022-12-03T22:15:30.856Z,0.70
2022-12-03T22:17:57.882Z,0.70
2022-12-03T22:20:24.941Z,0.60
2022-12-03T22:22:52.046Z,0.60
2022-12-03T22:25:19.237Z,0.70
2022-12-03T22:27:46.367Z,0.60
2022-12-03T22:30:13.713Z,0.60
2022-12-03T22:32:40.775Z,0.60
2022-12-03T22:35:08.119Z,0.70
2022-12-03T22:37:36.007Z,0.60
2022-12-03T22:40:03.276Z,0.60
2022-12-03T22:42:31.174Z,0.60
2022-12-03T22:44:58.422Z,0.60
2022-12-03T22:47:25.534Z,0.60
2022-12-03T22:49:52.912Z,0.60
2022-12-03T22:52:20.119Z,0.60
2022-12-03T22:54:49.395Z,0.60
2022-12-03T22:57:17.049Z,0.60
2022-12-03T22:59:44.141Z,0.60
2022-12-03T23:02:11.192Z,0.60
2022-12-03T23:04:38.412Z,0.60
2022-12-03T23:07:08.457Z,0.60
2022-12-03T23:09:36.247Z,0.60
2022-12-03T23:12:03.304Z,0.60
2022-12-03T23:14:30.347Z,0.60
2022-12-03T23:16:57.570Z,0.60
2022-12-03T23:19:24.640Z,0.60
2022-12-03T23:21:51.762Z,0.60
2022-12-03T23:24:18.745Z,0.60
2022-12-03T23:26:45.741Z,0.60
2022-12-03T23:29:12.865Z,0.60
2022-12-03T23:31:40.103Z,0.60
2022-12-03T23:34:07.606Z,0.60
2022-12-03T23:36:34.779Z,0.60
2022-12-03T23:39:02.095Z,0.60
2022-12-03T23:41:29.455Z,0.60
2022-12-03T23:43:56.500Z,0.60
2022-12-03T23:46:25.074Z,0.60
2022-12-03T23:48:52.366Z,0.60
2022-12-03T23:51:21.428Z,0.60
2022-12-03T23:53:48.691Z,0.60
2022-12-03T23:56:17.170Z,0.60
2022-12-03T23:58:44.779Z,0.60
